Terminal Aerodrome Forecast
Issued by NWS

Home | Current Version | Previous Version | Text Only | Print | Product List | Glossary On
Versions: 1 2 3 4 5 6 7 8 9 10 11 12 13 14 15 16
000
FTUS46 KSEW 302336
TAFPAE
TAF
KPAE 302336Z 0100/0124 VRB04KT P6SM VCSH SCT035 BKN045
     FM010900 12004KT P6SM VCSH SCT020 BKN035 OVC120
     FM011400 15007KT P6SM -RA SCT012 BKN020 OVC035
     FM012000 20006KT P6SM SCT025 BKN040=

USA.gov is the U.S. government's official web portal to all federal, state and local government web resources and services.